sensor_id;sensor_type;location;lat;lon;timestamp;P1;durP1;ratioP1;P2;durP2;ratioP2
9940;SDS011;5009;50.656;7.188;2022-10-18T00:01:34;11.45;;;8.77;;
9940;SDS011;5009;50.656;7.188;2022-10-18T00:03:59;9.73;;;8.82;;
9940;SDS011;5009;50.656;7.188;2022-10-18T00:06:25;9.07;;;8.18;;
9940;SDS011;5009;50.656;7.188;2022-10-18T00:08:51;10.45;;;9.35;;
9940;SDS011;5009;50.656;7.188;2022-10-18T00:11:16;9.55;;;8.65;;
9940;SDS011;5009;50.656;7.188;2022-10-18T00:13:42;9.80;;;8.80;;
9940;SDS011;5009;50.656;7.188;2022-10-18T00:16:12;10.35;;;8.52;;
9940;SDS011;5009;50.656;7.188;2022-10-18T00:18:39;10.65;;;8.88;;
9940;SDS011;5009;50.656;7.188;2022-10-18T00:21:07;9.07;;;8.18;;
9940;SDS011;5009;50.656;7.188;2022-10-18T00:23:36;9.88;;;8.88;;
9940;SDS011;5009;50.656;7.188;2022-10-18T00:26:03;8.55;;;7.68;;
9940;SDS011;5009;50.656;7.188;2022-10-18T00:28:37;10.73;;;8.48;;
9940;SDS011;5009;50.656;7.188;2022-10-18T00:31:14;9.68;;;8.55;;
9940;SDS011;5009;50.656;7.188;2022-10-18T00:33:42;8.98;;;8.07;;
9940;SDS011;5009;50.656;7.188;2022-10-18T00:36:09;9.02;;;7.88;;
9940;SDS011;5009;50.656;7.188;2022-10-18T00:38:36;10.10;;;9.10;;
9940;SDS011;5009;50.656;7.188;2022-10-18T00:41:03;8.73;;;7.95;;
9940;SDS011;5009;50.656;7.188;2022-10-18T00:43:29;8.85;;;8.05;;
9940;SDS011;5009;50.656;7.188;2022-10-18T00:45:54;9.70;;;8.80;;
9940;SDS011;5009;50.656;7.188;2022-10-18T00:48:20;10.80;;;9.70;;
9940;SDS011;5009;50.656;7.188;2022-10-18T00:50:46;10.68;;;9.68;;
9940;SDS011;5009;50.656;7.188;2022-10-18T00:53:15;10.07;;;9.07;;
9940;SDS011;5009;50.656;7.188;2022-10-18T00:55:43;10.27;;;9.27;;
9940;SDS011;5009;50.656;7.188;2022-10-18T00:58:09;12.20;;;9.95;;
9940;SDS011;5009;50.656;7.188;2022-10-18T01:00:36;11.35;;;9.80;;
9940;SDS011;5009;50.656;7.188;2022-10-18T01:03:05;10.43;;;9.13;;
9940;SDS011;5009;50.656;7.188;2022-10-18T01:05:32;10.55;;;9.60;;
9940;SDS011;5009;50.656;7.188;2022-10-18T01:10:54;10.73;;;9.82;;
9940;SDS011;5009;50.656;7.188;2022-10-18T01:14:07;11.60;;;10.38;;
9940;SDS011;5009;50.656;7.188;2022-10-18T01:27:44;10.80;;;9.70;;
9940;SDS011;5009;50.656;7.188;2022-10-18T01:35:46;10.48;;;9.35;;
9940;SDS011;5009;50.656;7.188;2022-10-18T01:38:18;10.00;;;9.00;;
9940;SDS011;5009;50.656;7.188;2022-10-18T01:40:47;11.32;;;9.98;;
9940;SDS011;5009;50.656;7.188;2022-10-18T01:43:15;10.70;;;9.68;;
9940;SDS011;5009;50.656;7.188;2022-10-18T01:45:42;11.05;;;9.98;;
9940;SDS011;5009;50.656;7.188;2022-10-18T01:48:08;10.20;;;9.30;;
9940;SDS011;5009;50.656;7.188;2022-10-18T01:50:36;11.25;;;9.45;;
9940;SDS011;5009;50.656;7.188;2022-10-18T01:53:01;9.60;;;8.68;;
9940;SDS011;5009;50.656;7.188;2022-10-18T01:55:32;11.80;;;9.15;;
9940;SDS011;5009;50.656;7.188;2022-10-18T02:00:59;11.60;;;9.43;;
9940;SDS011;5009;50.656;7.188;2022-10-18T02:03:32;9.48;;;8.65;;
9940;SDS011;5009;50.656;7.188;2022-10-18T02:09:07;10.13;;;9.23;;
9940;SDS011;5009;50.656;7.188;2022-10-18T02:11:27;11.60;;;10.45;;
9940;SDS011;5009;50.656;7.188;2022-10-18T02:13:56;12.40;;;11.20;;
9940;SDS011;5009;50.656;7.188;2022-10-18T02:19:06;10.55;;;9.48;;
9940;SDS011;5009;50.656;7.188;2022-10-18T02:21:52;10.93;;;9.45;;
9940;SDS011;5009;50.656;7.188;2022-10-18T02:24:20;9.32;;;8.52;;
9940;SDS011;5009;50.656;7.188;2022-10-18T02:26:49;11.57;;;10.35;;
9940;SDS011;5009;50.656;7.188;2022-10-18T02:29:15;10.52;;;9.55;;
9940;SDS011;5009;50.656;7.188;2022-10-18T02:31:47;9.95;;;9.05;;
9940;SDS011;5009;50.656;7.188;2022-10-18T02:34:31;10.45;;;9.45;;
9940;SDS011;5009;50.656;7.188;2022-10-18T02:37:01;11.90;;;9.98;;
9940;SDS011;5009;50.656;7.188;2022-10-18T02:39:32;11.82;;;10.65;;
9940;SDS011;5009;50.656;7.188;2022-10-18T02:41:59;11.15;;;10.05;;
9940;SDS011;5009;50.656;7.188;2022-10-18T02:44:30;11.45;;;10.25;;
9940;SDS011;5009;50.656;7.188;2022-10-18T02:46:56;11.20;;;10.07;;
9940;SDS011;5009;50.656;7.188;2022-10-18T02:49:22;11.07;;;10.02;;
9940;SDS011;5009;50.656;7.188;2022-10-18T02:51:47;11.15;;;9.93;;
9940;SDS011;5009;50.656;7.188;2022-10-18T02:54:13;10.73;;;9.20;;
9940;SDS011;5009;50.656;7.188;2022-10-18T02:56:39;10.90;;;9.80;;
9940;SDS011;5009;50.656;7.188;2022-10-18T02:59:04;10.80;;;9.80;;
9940;SDS011;5009;50.656;7.188;2022-10-18T03:01:31;11.98;;;10.80;;
9940;SDS011;5009;50.656;7.188;2022-10-18T03:03:57;12.18;;;10.98;;
9940;SDS011;5009;50.656;7.188;2022-10-18T03:06:23;11.02;;;9.95;;
9940;SDS011;5009;50.656;7.188;2022-10-18T03:08:48;10.63;;;9.65;;
9940;SDS011;5009;50.656;7.188;2022-10-18T03:11:14;10.57;;;9.60;;
9940;SDS011;5009;50.656;7.188;2022-10-18T03:13:40;11.20;;;10.10;;
9940;SDS011;5009;50.656;7.188;2022-10-18T03:16:05;12.65;;;11.35;;
9940;SDS011;5009;50.656;7.188;2022-10-18T03:18:31;12.90;;;11.60;;
9940;SDS011;5009;50.656;7.188;2022-10-18T03:20:56;10.80;;;9.70;;
9940;SDS011;5009;50.656;7.188;2022-10-18T03:23:22;9.98;;;9.10;;
9940;SDS011;5009;50.656;7.188;2022-10-18T03:25:47;10.23;;;9.25;;
9940;SDS011;5009;50.656;7.188;2022-10-18T03:28:13;10.55;;;9.55;;
9940;SDS011;5009;50.656;7.188;2022-10-18T03:30:38;13.77;;;10.02;;
9940;SDS011;5009;50.656;7.188;2022-10-18T03:33:04;10.02;;;9.13;;
9940;SDS011;5009;50.656;7.188;2022-10-18T03:35:30;10.25;;;9.25;;
9940;SDS011;5009;50.656;7.188;2022-10-18T03:37:56;9.90;;;9.00;;
9940;SDS011;5009;50.656;7.188;2022-10-18T03:40:22;9.07;;;8.18;;
9940;SDS011;5009;50.656;7.188;2022-10-18T03:42:47;8.20;;;7.40;;
9940;SDS011;5009;50.656;7.188;2022-10-18T03:45:13;7.90;;;6.40;;
9940;SDS011;5009;50.656;7.188;2022-10-18T03:47:38;7.70;;;7.00;;
9940;SDS011;5009;50.656;7.188;2022-10-18T03:50:04;8.20;;;6.53;;
9940;SDS011;5009;50.656;7.188;2022-10-18T03:52:30;6.40;;;5.80;;
9940;SDS011;5009;50.656;7.188;2022-10-18T03:54:55;7.05;;;6.32;;
9940;SDS011;5009;50.656;7.188;2022-10-18T03:57:21;6.15;;;5.55;;
9940;SDS011;5009;50.656;7.188;2022-10-18T03:59:46;7.22;;;6.45;;
9940;SDS011;5009;50.656;7.188;2022-10-18T04:02:12;7.47;;;6.10;;
9940;SDS011;5009;50.656;7.188;2022-10-18T04:04:38;6.93;;;6.32;;
9940;SDS011;5009;50.656;7.188;2022-10-18T04:07:03;6.57;;;5.97;;
9940;SDS011;5009;50.656;7.188;2022-10-18T04:09:29;6.45;;;5.95;;
9940;SDS011;5009;50.656;7.188;2022-10-18T04:11:55;7.50;;;5.35;;
9940;SDS011;5009;50.656;7.188;2022-10-18T04:14:20;6.55;;;5.95;;
9940;SDS011;5009;50.656;7.188;2022-10-18T04:16:46;7.10;;;6.40;;
9940;SDS011;5009;50.656;7.188;2022-10-18T04:19:12;6.60;;;6.00;;
9940;SDS011;5009;50.656;7.188;2022-10-18T04:21:37;6.60;;;6.07;;
9940;SDS011;5009;50.656;7.188;2022-10-18T04:24:03;6.18;;;5.68;;
9940;SDS011;5009;50.656;7.188;2022-10-18T04:26:29;7.40;;;5.78;;
9940;SDS011;5009;50.656;7.188;2022-10-18T04:28:54;6.90;;;5.30;;
9940;SDS011;5009;50.656;7.188;2022-10-18T04:31:20;5.38;;;4.88;;
9940;SDS011;5009;50.656;7.188;2022-10-18T04:33:45;5.32;;;4.47;;
9940;SDS011;5009;50.656;7.188;2022-10-18T04:36:11;4.68;;;4.28;;
9940;SDS011;5009;50.656;7.188;2022-10-18T04:38:37;6.82;;;4.47;;
9940;SDS011;5009;50.656;7.188;2022-10-18T04:41:02;5.80;;;4.53;;
9940;SDS011;5009;50.656;7.188;2022-10-18T04:43:28;6.22;;;4.50;;
9940;SDS011;5009;50.656;7.188;2022-10-18T04:45:54;7.40;;;4.22;;
9940;SDS011;5009;50.656;7.188;2022-10-18T04:48:19;4.95;;;4.45;;
9940;SDS011;5009;50.656;7.188;2022-10-18T04:50:48;5.35;;;4.85;;
9940;SDS011;5009;50.656;7.188;2022-10-18T04:53:15;5.50;;;4.82;;
9940;SDS011;5009;50.656;7.188;2022-10-18T04:55:47;5.20;;;4.70;;
9940;SDS011;5009;50.656;7.188;2022-10-18T04:58:14;5.50;;;4.75;;
9940;SDS011;5009;50.656;7.188;2022-10-18T05:00:43;5.47;;;4.97;;
9940;SDS011;5009;50.656;7.188;2022-10-18T05:03:10;6.22;;;4.50;;
9940;SDS011;5009;50.656;7.188;2022-10-18T05:05:36;5.28;;;4.88;;
9940;SDS011;5009;50.656;7.188;2022-10-18T05:08:02;5.68;;;5.18;;
9940;SDS011;5009;50.656;7.188;2022-10-18T05:10:28;5.63;;;4.90;;
9940;SDS011;5009;50.656;7.188;2022-10-18T05:12:53;5.47;;;4.75;;
9940;SDS011;5009;50.656;7.188;2022-10-18T05:15:19;5.75;;;5.22;;
9940;SDS011;5009;50.656;7.188;2022-10-18T05:17:45;5.80;;;4.88;;
9940;SDS011;5009;50.656;7.188;2022-10-18T05:20:10;5.07;;;4.68;;
9940;SDS011;5009;50.656;7.188;2022-10-18T05:22:36;5.30;;;4.82;;
9940;SDS011;5009;50.656;7.188;2022-10-18T05:25:01;5.97;;;5.47;;
9940;SDS011;5009;50.656;7.188;2022-10-18T05:27:27;6.10;;;5.60;;
9940;SDS011;5009;50.656;7.188;2022-10-18T05:29:53;9.57;;;4.90;;
9940;SDS011;5009;50.656;7.188;2022-10-18T05:32:19;8.30;;;4.93;;
9940;SDS011;5009;50.656;7.188;2022-10-18T05:34:44;5.65;;;5.05;;
9940;SDS011;5009;50.656;7.188;2022-10-18T05:37:10;7.03;;;6.00;;
9940;SDS011;5009;50.656;7.188;2022-10-18T05:39:36;7.22;;;5.93;;
9940;SDS011;5009;50.656;7.188;2022-10-18T05:42:02;6.03;;;5.38;;
9940;SDS011;5009;50.656;7.188;2022-10-18T05:44:28;8.30;;;5.22;;
9940;SDS011;5009;50.656;7.188;2022-10-18T05:46:54;5.95;;;5.43;;
9940;SDS011;5009;50.656;7.188;2022-10-18T05:49:19;6.35;;;5.20;;
9940;SDS011;5009;50.656;7.188;2022-10-18T05:51:45;5.95;;;5.38;;
9940;SDS011;5009;50.656;7.188;2022-10-18T05:54:11;5.50;;;5.00;;
9940;SDS011;5009;50.656;7.188;2022-10-18T05:56:37;6.45;;;5.45;;
9940;SDS011;5009;50.656;7.188;2022-10-18T05:59:03;5.53;;;5.13;;
9940;SDS011;5009;50.656;7.188;2022-10-18T06:01:34;10.00;;;5.50;;
9940;SDS011;5009;50.656;7.188;2022-10-18T06:03:59;7.75;;;5.68;;
9940;SDS011;5009;50.656;7.188;2022-10-18T06:06:25;7.95;;;5.72;;
9940;SDS011;5009;50.656;7.188;2022-10-18T06:08:51;6.82;;;5.32;;
9940;SDS011;5009;50.656;7.188;2022-10-18T06:11:17;6.93;;;5.00;;
9940;SDS011;5009;50.656;7.188;2022-10-18T06:13:45;5.97;;;5.47;;
9940;SDS011;5009;50.656;7.188;2022-10-18T06:16:12;5.45;;;5.05;;
9940;SDS011;5009;50.656;7.188;2022-10-18T06:18:38;7.60;;;5.47;;
9940;SDS011;5009;50.656;7.188;2022-10-18T06:21:05;6.80;;;5.10;;
9940;SDS011;5009;50.656;7.188;2022-10-18T06:23:31;5.00;;;4.60;;
9940;SDS011;5009;50.656;7.188;2022-10-18T06:25:57;5.35;;;4.85;;
9940;SDS011;5009;50.656;7.188;2022-10-18T06:28:24;5.25;;;4.80;;
9940;SDS011;5009;50.656;7.188;2022-10-18T06:30:50;5.65;;;5.07;;
9940;SDS011;5009;50.656;7.188;2022-10-18T06:33:15;6.13;;;5.13;;
9940;SDS011;5009;50.656;7.188;2022-10-18T06:35:41;5.95;;;5.35;;
9940;SDS011;5009;50.656;7.188;2022-10-18T06:38:06;5.13;;;4.63;;
9940;SDS011;5009;50.656;7.188;2022-10-18T06:40:32;5.20;;;4.80;;
9940;SDS011;5009;50.656;7.188;2022-10-18T06:43:05;5.72;;;5.20;;
9940;SDS011;5009;50.656;7.188;2022-10-18T06:45:31;6.03;;;5.50;;
9940;SDS011;5009;50.656;7.188;2022-10-18T06:47:57;5.63;;;5.07;;
9940;SDS011;5009;50.656;7.188;2022-10-18T06:50:23;6.80;;;5.43;;
9940;SDS011;5009;50.656;7.188;2022-10-18T06:52:50;6.63;;;6.03;;
9940;SDS011;5009;50.656;7.188;2022-10-18T06:55:16;6.53;;;5.93;;
9940;SDS011;5009;50.656;7.188;2022-10-18T06:57:42;7.22;;;5.60;;
9940;SDS011;5009;50.656;7.188;2022-10-18T07:00:08;6.35;;;5.75;;
9940;SDS011;5009;50.656;7.188;2022-10-18T07:02:34;7.50;;;6.15;;
9940;SDS011;5009;50.656;7.188;2022-10-18T07:05:01;6.28;;;5.68;;
9940;SDS011;5009;50.656;7.188;2022-10-18T07:07:29;6.18;;;5.65;;
9940;SDS011;5009;50.656;7.188;2022-10-18T07:09:55;6.35;;;5.85;;
9940;SDS011;5009;50.656;7.188;2022-10-18T07:12:20;6.68;;;6.00;;
9940;SDS011;5009;50.656;7.188;2022-10-18T07:14:46;6.97;;;6.28;;
9940;SDS011;5009;50.656;7.188;2022-10-18T07:17:11;6.80;;;6.10;;
9940;SDS011;5009;50.656;7.188;2022-10-18T07:19:37;7.20;;;6.60;;
9940;SDS011;5009;50.656;7.188;2022-10-18T07:22:03;6.93;;;6.18;;
9940;SDS011;5009;50.656;7.188;2022-10-18T07:24:28;6.88;;;6.18;;
9940;SDS011;5009;50.656;7.188;2022-10-18T07:26:54;6.97;;;6.28;;
9940;SDS011;5009;50.656;7.188;2022-10-18T07:29:19;6.05;;;5.55;;
9940;SDS011;5009;50.656;7.188;2022-10-18T07:31:45;6.07;;;5.55;;
9940;SDS011;5009;50.656;7.188;2022-10-18T07:34:11;6.93;;;6.25;;
9940;SDS011;5009;50.656;7.188;2022-10-18T07:36:37;6.18;;;5.68;;
9940;SDS011;5009;50.656;7.188;2022-10-18T07:39:03;6.93;;;5.53;;
9940;SDS011;5009;50.656;7.188;2022-10-18T07:41:29;7.15;;;5.82;;
9940;SDS011;5009;50.656;7.188;2022-10-18T07:43:57;5.78;;;5.28;;
9940;SDS011;5009;50.656;7.188;2022-10-18T07:46:23;6.20;;;5.60;;
9940;SDS011;5009;50.656;7.188;2022-10-18T07:48:48;6.22;;;5.65;;
9940;SDS011;5009;50.656;7.188;2022-10-18T07:51:14;6.65;;;5.43;;
9940;SDS011;5009;50.656;7.188;2022-10-18T07:53:40;6.80;;;6.18;;
9940;SDS011;5009;50.656;7.188;2022-10-18T07:56:07;6.75;;;6.15;;
9940;SDS011;5009;50.656;7.188;2022-10-18T07:58:39;6.45;;;5.25;;
9940;SDS011;5009;50.656;7.188;2022-10-18T08:01:09;7.15;;;6.53;;
9940;SDS011;5009;50.656;7.188;2022-10-18T08:03:35;6.15;;;5.65;;
9940;SDS011;5009;50.656;7.188;2022-10-18T08:06:02;5.93;;;5.43;;
9940;SDS011;5009;50.656;7.188;2022-10-18T08:08:28;6.53;;;5.75;;
9940;SDS011;5009;50.656;7.188;2022-10-18T08:10:54;7.82;;;5.55;;
9940;SDS011;5009;50.656;7.188;2022-10-18T08:13:25;6.18;;;5.57;;
9940;SDS011;5009;50.656;7.188;2022-10-18T08:15:55;6.20;;;5.03;;
9940;SDS011;5009;50.656;7.188;2022-10-18T08:18:28;5.30;;;4.90;;
9940;SDS011;5009;50.656;7.188;2022-10-18T08:20:54;5.40;;;4.90;;
9940;SDS011;5009;50.656;7.188;2022-10-18T08:23:20;6.72;;;5.07;;
9940;SDS011;5009;50.656;7.188;2022-10-18T08:25:45;5.85;;;5.35;;
9940;SDS011;5009;50.656;7.188;2022-10-18T08:28:11;6.00;;;5.40;;
9940;SDS011;5009;50.656;7.188;2022-10-18T08:30:38;5.90;;;5.40;;
9940;SDS011;5009;50.656;7.188;2022-10-18T08:33:04;5.53;;;5.03;;
9940;SDS011;5009;50.656;7.188;2022-10-18T08:35:30;4.88;;;4.38;;
9940;SDS011;5009;50.656;7.188;2022-10-18T08:37:56;4.30;;;3.90;;
9940;SDS011;5009;50.656;7.188;2022-10-18T08:40:22;4.43;;;4.03;;
9940;SDS011;5009;50.656;7.188;2022-10-18T08:45:37;4.95;;;4.30;;
9940;SDS011;5009;50.656;7.188;2022-10-18T08:48:05;4.65;;;3.83;;
9940;SDS011;5009;50.656;7.188;2022-10-18T08:50:40;3.75;;;3.47;;
9940;SDS011;5009;50.656;7.188;2022-10-18T08:53:22;4.15;;;3.72;;
9940;SDS011;5009;50.656;7.188;2022-10-18T08:56:02;4.10;;;3.72;;
9940;SDS011;5009;50.656;7.188;2022-10-18T08:58:39;4.53;;;4.13;;
9940;SDS011;5009;50.656;7.188;2022-10-18T09:03:56;3.55;;;3.00;;
9940;SDS011;5009;50.656;7.188;2022-10-18T09:06:45;2.90;;;2.70;;
9940;SDS011;5009;50.656;7.188;2022-10-18T09:09:25;2.70;;;2.50;;
9940;SDS011;5009;50.656;7.188;2022-10-18T09:17:44;3.90;;;3.53;;
9940;SDS011;5009;50.656;7.188;2022-10-18T09:23:43;4.53;;;3.60;;
9940;SDS011;5009;50.656;7.188;2022-10-18T09:26:11;4.40;;;3.10;;
9940;SDS011;5009;50.656;7.188;2022-10-18T09:34:21;5.47;;;4.97;;
9940;SDS011;5009;50.656;7.188;2022-10-18T09:36:55;7.60;;;6.63;;
9940;SDS011;5009;50.656;7.188;2022-10-18T09:39:21;10.35;;;6.40;;
9940;SDS011;5009;50.656;7.188;2022-10-18T09:41:58;7.53;;;5.63;;
9940;SDS011;5009;50.656;7.188;2022-10-18T09:44:36;5.90;;;5.40;;
9940;SDS011;5009;50.656;7.188;2022-10-18T09:47:18;5.78;;;5.28;;
9940;SDS011;5009;50.656;7.188;2022-10-18T09:49:50;6.28;;;4.78;;
9940;SDS011;5009;50.656;7.188;2022-10-18T09:52:36;5.18;;;4.78;;
9940;SDS011;5009;50.656;7.188;2022-10-18T09:55:14;5.18;;;4.68;;
9940;SDS011;5009;50.656;7.188;2022-10-18T09:57:50;12.55;;;5.75;;
9940;SDS011;5009;50.656;7.188;2022-10-18T10:00:23;5.80;;;5.30;;
9940;SDS011;5009;50.656;7.188;2022-10-18T10:03:10;5.28;;;4.60;;
9940;SDS011;5009;50.656;7.188;2022-10-18T10:05:38;5.95;;;4.85;;
9940;SDS011;5009;50.656;7.188;2022-10-18T10:08:04;5.50;;;4.25;;
9940;SDS011;5009;50.656;7.188;2022-10-18T10:10:30;4.80;;;4.40;;
9940;SDS011;5009;50.656;7.188;2022-10-18T10:15:30;5.43;;;4.97;;
9940;SDS011;5009;50.656;7.188;2022-10-18T10:20:32;5.45;;;4.50;;
9940;SDS011;5009;50.656;7.188;2022-10-18T10:23:20;5.70;;;4.07;;
9940;SDS011;5009;50.656;7.188;2022-10-18T10:25:51;8.05;;;4.72;;
9940;SDS011;5009;50.656;7.188;2022-10-18T10:28:19;4.88;;;4.47;;
9940;SDS011;5009;50.656;7.188;2022-10-18T10:30:47;5.00;;;4.60;;
9940;SDS011;5009;50.656;7.188;2022-10-18T10:33:30;4.60;;;4.20;;
9940;SDS011;5009;50.656;7.188;2022-10-18T10:36:01;4.53;;;4.10;;
9940;SDS011;5009;50.656;7.188;2022-10-18T10:38:29;4.00;;;3.70;;
9940;SDS011;5009;50.656;7.188;2022-10-18T10:40:56;6.28;;;4.35;;
9940;SDS011;5009;50.656;7.188;2022-10-18T10:43:31;6.47;;;4.85;;
9940;SDS011;5009;50.656;7.188;2022-10-18T10:48:46;7.40;;;5.53;;
9940;SDS011;5009;50.656;7.188;2022-10-18T10:51:13;6.28;;;5.68;;
9940;SDS011;5009;50.656;7.188;2022-10-18T10:53:46;10.32;;;5.63;;
9940;SDS011;5009;50.656;7.188;2022-10-18T10:56:23;7.00;;;6.40;;
9940;SDS011;5009;50.656;7.188;2022-10-18T10:58:54;10.52;;;6.25;;
9940;SDS011;5009;50.656;7.188;2022-10-18T11:01:31;7.97;;;7.07;;
9940;SDS011;5009;50.656;7.188;2022-10-18T11:06:51;10.30;;;8.32;;
9940;SDS011;5009;50.656;7.188;2022-10-18T11:10:14;10.05;;;8.80;;
9940;SDS011;5009;50.656;7.188;2022-10-18T11:12:36;10.63;;;8.40;;
9940;SDS011;5009;50.656;7.188;2022-10-18T11:15:19;11.52;;;9.52;;
9940;SDS011;5009;50.656;7.188;2022-10-18T11:20:44;11.27;;;10.18;;
9940;SDS011;5009;50.656;7.188;2022-10-18T11:23:15;11.82;;;10.70;;
9940;SDS011;5009;50.656;7.188;2022-10-18T11:36:44;14.60;;;13.20;;
9940;SDS011;5009;50.656;7.188;2022-10-18T11:39:30;13.85;;;11.73;;
9940;SDS011;5009;50.656;7.188;2022-10-18T11:45:21;15.93;;;13.60;;
9940;SDS011;5009;50.656;7.188;2022-10-18T11:47:55;13.55;;;12.15;;
9940;SDS011;5009;50.656;7.188;2022-10-18T11:56:35;16.38;;;13.40;;
9940;SDS011;5009;50.656;7.188;2022-10-18T12:05:01;17.13;;;13.93;;
9940;SDS011;5009;50.656;7.188;2022-10-18T12:07:30;20.25;;;15.23;;
9940;SDS011;5009;50.656;7.188;2022-10-18T12:10:00;16.77;;;14.95;;
9940;SDS011;5009;50.656;7.188;2022-10-18T12:12:31;16.98;;;15.02;;
9940;SDS011;5009;50.656;7.188;2022-10-18T12:15:06;18.15;;;15.63;;
9940;SDS011;5009;50.656;7.188;2022-10-18T12:17:44;15.32;;;13.73;;
9940;SDS011;5009;50.656;7.188;2022-10-18T12:20:35;16.52;;;14.15;;
9940;SDS011;5009;50.656;7.188;2022-10-18T12:23:03;15.95;;;14.25;;
9940;SDS011;5009;50.656;7.188;2022-10-18T12:25:38;16.50;;;14.45;;
9940;SDS011;5009;50.656;7.188;2022-10-18T12:33:43;17.42;;;15.18;;
9940;SDS011;5009;50.656;7.188;2022-10-18T12:38:43;19.02;;;17.02;;
9940;SDS011;5009;50.656;7.188;2022-10-18T12:41:18;19.05;;;17.05;;
9940;SDS011;5009;50.656;7.188;2022-10-18T12:43:58;20.40;;;18.40;;
9940;SDS011;5009;50.656;7.188;2022-10-18T12:46:46;19.60;;;17.42;;
9940;SDS011;5009;50.656;7.188;2022-10-18T12:49:16;20.83;;;18.63;;
9940;SDS011;5009;50.656;7.188;2022-10-18T12:51:52;19.95;;;17.85;;
9940;SDS011;5009;50.656;7.188;2022-10-18T12:54:29;19.65;;;17.58;;
9940;SDS011;5009;50.656;7.188;2022-10-18T12:56:57;20.30;;;18.30;;
9940;SDS011;5009;50.656;7.188;2022-10-18T13:09:21;23.20;;;20.77;;
9940;SDS011;5009;50.656;7.188;2022-10-18T13:11:48;23.77;;;21.23;;
9940;SDS011;5009;50.656;7.188;2022-10-18T13:14:20;23.60;;;21.20;;
9940;SDS011;5009;50.656;7.188;2022-10-18T13:19:35;23.83;;;20.98;;
9940;SDS011;5009;50.656;7.188;2022-10-18T13:24:46;25.20;;;22.50;;
9940;SDS011;5009;50.656;7.188;2022-10-18T13:27:41;24.00;;;21.50;;
9940;SDS011;5009;50.656;7.188;2022-10-18T14:00:53;28.90;;;25.88;;
9940;SDS011;5009;50.656;7.188;2022-10-18T14:08:45;27.83;;;24.92;;
9940;SDS011;5009;50.656;7.188;2022-10-18T14:11:35;28.33;;;25.17;;
9940;SDS011;5009;50.656;7.188;2022-10-18T14:14:12;26.08;;;23.45;;
9940;SDS011;5009;50.656;7.188;2022-10-18T14:16:41;23.00;;;20.70;;
9940;SDS011;5009;50.656;7.188;2022-10-18T14:20:14;23.38;;;21.02;;
9940;SDS011;5009;50.656;7.188;2022-10-18T14:24:47;24.02;;;21.58;;
9940;SDS011;5009;50.656;7.188;2022-10-18T14:27:27;25.25;;;22.65;;
9940;SDS011;5009;50.656;7.188;2022-10-18T14:30:06;26.63;;;23.40;;
9940;SDS011;5009;50.656;7.188;2022-10-18T14:32:47;24.48;;;21.98;;
9940;SDS011;5009;50.656;7.188;2022-10-18T14:35:18;25.13;;;22.58;;
9940;SDS011;5009;50.656;7.188;2022-10-18T14:37:50;24.50;;;21.92;;
9940;SDS011;5009;50.656;7.188;2022-10-18T14:40:24;28.95;;;25.20;;
9940;SDS011;5009;50.656;7.188;2022-10-18T14:42:55;26.45;;;23.75;;
9940;SDS011;5009;50.656;7.188;2022-10-18T14:45:21;27.00;;;23.58;;
9940;SDS011;5009;50.656;7.188;2022-10-18T14:47:47;25.17;;;22.45;;
9940;SDS011;5009;50.656;7.188;2022-10-18T14:50:31;28.00;;;24.35;;
9940;SDS011;5009;50.656;7.188;2022-10-18T14:53:02;25.92;;;23.33;;
9940;SDS011;5009;50.656;7.188;2022-10-18T14:55:33;26.38;;;23.77;;
9940;SDS011;5009;50.656;7.188;2022-10-18T14:57:59;25.70;;;23.23;;
9940;SDS011;5009;50.656;7.188;2022-10-18T15:00:28;27.20;;;24.38;;
9940;SDS011;5009;50.656;7.188;2022-10-18T15:02:59;28.17;;;25.30;;
9940;SDS011;5009;50.656;7.188;2022-10-18T15:05:25;30.40;;;27.27;;
9940;SDS011;5009;50.656;7.188;2022-10-18T15:07:51;31.98;;;28.00;;
9940;SDS011;5009;50.656;7.188;2022-10-18T15:10:28;32.47;;;29.05;;
9940;SDS011;5009;50.656;7.188;2022-10-18T15:12:56;34.28;;;28.73;;
9940;SDS011;5009;50.656;7.188;2022-10-18T15:15:28;32.88;;;28.48;;
9940;SDS011;5009;50.656;7.188;2022-10-18T15:17:56;29.33;;;26.20;;
9940;SDS011;5009;50.656;7.188;2022-10-18T15:22:50;29.45;;;26.42;;
9940;SDS011;5009;50.656;7.188;2022-10-18T15:27:51;32.40;;;27.35;;
9940;SDS011;5009;50.656;7.188;2022-10-18T15:33:03;33.70;;;30.10;;
9940;SDS011;5009;50.656;7.188;2022-10-18T15:35:34;35.35;;;31.23;;
9940;SDS011;5009;50.656;7.188;2022-10-18T15:38:12;39.00;;;33.90;;
9940;SDS011;5009;50.656;7.188;2022-10-18T15:40:48;42.33;;;37.63;;
9940;SDS011;5009;50.656;7.188;2022-10-18T15:45:50;44.22;;;35.70;;
9940;SDS011;5009;50.656;7.188;2022-10-18T15:50:55;43.63;;;34.50;;
9940;SDS011;5009;50.656;7.188;2022-10-18T15:53:34;39.85;;;32.67;;
9940;SDS011;5009;50.656;7.188;2022-10-18T15:58:56;39.10;;;32.50;;
9940;SDS011;5009;50.656;7.188;2022-10-18T16:01:30;41.63;;;33.45;;
9940;SDS011;5009;50.656;7.188;2022-10-18T16:04:01;39.20;;;33.05;;
9940;SDS011;5009;50.656;7.188;2022-10-18T16:06:32;45.05;;;36.30;;
9940;SDS011;5009;50.656;7.188;2022-10-18T16:09:01;43.28;;;36.92;;
9940;SDS011;5009;50.656;7.188;2022-10-18T16:11:26;39.92;;;34.65;;
9940;SDS011;5009;50.656;7.188;2022-10-18T16:13:53;38.10;;;33.42;;
9940;SDS011;5009;50.656;7.188;2022-10-18T16:16:24;40.90;;;32.78;;
9940;SDS011;5009;50.656;7.188;2022-10-18T16:18:51;34.30;;;30.35;;
9940;SDS011;5009;50.656;7.188;2022-10-18T16:21:20;39.40;;;32.90;;
9940;SDS011;5009;50.656;7.188;2022-10-18T16:23:48;35.67;;;30.30;;
9940;SDS011;5009;50.656;7.188;2022-10-18T16:26:14;39.85;;;30.35;;
9940;SDS011;5009;50.656;7.188;2022-10-18T16:28:40;33.75;;;27.92;;
9940;SDS011;5009;50.656;7.188;2022-10-18T16:31:07;32.95;;;27.52;;
9940;SDS011;5009;50.656;7.188;2022-10-18T16:33:34;33.20;;;28.92;;
9940;SDS011;5009;50.656;7.188;2022-10-18T16:36:00;36.50;;;30.35;;
9940;SDS011;5009;50.656;7.188;2022-10-18T16:38:35;43.65;;;36.58;;
9940;SDS011;5009;50.656;7.188;2022-10-18T16:41:05;54.13;;;45.47;;
9940;SDS011;5009;50.656;7.188;2022-10-18T16:43:31;57.00;;;47.22;;
9940;SDS011;5009;50.656;7.188;2022-10-18T16:45:58;53.63;;;45.35;;
9940;SDS011;5009;50.656;7.188;2022-10-18T16:48:24;60.80;;;47.50;;
9940;SDS011;5009;50.656;7.188;2022-10-18T16:50:51;54.13;;;45.28;;
9940;SDS011;5009;50.656;7.188;2022-10-18T16:53:18;53.47;;;43.83;;
9940;SDS011;5009;50.656;7.188;2022-10-18T16:55:48;49.03;;;43.22;;
9940;SDS011;5009;50.656;7.188;2022-10-18T16:58:17;51.22;;;42.95;;
9940;SDS011;5009;50.656;7.188;2022-10-18T17:00:43;44.28;;;38.83;;
9940;SDS011;5009;50.656;7.188;2022-10-18T17:03:10;42.95;;;36.15;;
9940;SDS011;5009;50.656;7.188;2022-10-18T17:05:36;38.33;;;34.15;;
9940;SDS011;5009;50.656;7.188;2022-10-18T17:08:02;36.78;;;30.73;;
9940;SDS011;5009;50.656;7.188;2022-10-18T17:10:28;38.05;;;31.52;;
9940;SDS011;5009;50.656;7.188;2022-10-18T17:12:53;36.95;;;30.02;;
9940;SDS011;5009;50.656;7.188;2022-10-18T17:15:19;31.92;;;27.90;;
9940;SDS011;5009;50.656;7.188;2022-10-18T17:17:45;35.45;;;27.95;;
9940;SDS011;5009;50.656;7.188;2022-10-18T17:20:15;31.77;;;26.65;;
9940;SDS011;5009;50.656;7.188;2022-10-18T17:22:50;33.47;;;27.20;;
9940;SDS011;5009;50.656;7.188;2022-10-18T17:25:16;31.85;;;26.60;;
9940;SDS011;5009;50.656;7.188;2022-10-18T17:27:42;35.83;;;27.40;;
9940;SDS011;5009;50.656;7.188;2022-10-18T17:30:08;30.92;;;25.20;;
9940;SDS011;5009;50.656;7.188;2022-10-18T17:32:35;30.83;;;26.17;;
9940;SDS011;5009;50.656;7.188;2022-10-18T17:35:01;31.50;;;26.98;;
9940;SDS011;5009;50.656;7.188;2022-10-18T17:37:27;37.42;;;26.05;;
9940;SDS011;5009;50.656;7.188;2022-10-18T17:39:53;31.35;;;26.40;;
9940;SDS011;5009;50.656;7.188;2022-10-18T17:42:19;29.25;;;26.05;;
9940;SDS011;5009;50.656;7.188;2022-10-18T17:44:45;31.55;;;26.48;;
9940;SDS011;5009;50.656;7.188;2022-10-18T17:47:12;32.95;;;25.92;;
9940;SDS011;5009;50.656;7.188;2022-10-18T17:49:38;31.02;;;25.48;;
9940;SDS011;5009;50.656;7.188;2022-10-18T17:52:03;35.25;;;27.42;;
9940;SDS011;5009;50.656;7.188;2022-10-18T17:54:29;29.48;;;25.60;;
9940;SDS011;5009;50.656;7.188;2022-10-18T17:56:55;32.22;;;25.35;;
9940;SDS011;5009;50.656;7.188;2022-10-18T17:59:20;34.90;;;27.67;;
9940;SDS011;5009;50.656;7.188;2022-10-18T18:01:46;33.30;;;27.15;;